createdAt,value
2023-04-03T00:02:09.554Z,88.90
2023-04-03T00:04:37.563Z,88.86
2023-04-03T00:07:05.385Z,88.83
2023-04-03T00:09:33.302Z,88.77
2023-04-03T00:12:01.169Z,88.51
2023-04-03T00:14:29.062Z,88.39
2023-04-03T00:16:57.019Z,88.49
2023-04-03T00:19:24.992Z,88.59
2023-04-03T00:21:53.012Z,88.68
2023-04-03T00:24:23.578Z,88.30
2023-04-03T00:26:51.626Z,88.33
2023-04-03T00:29:22.033Z,88.38
2023-04-03T00:31:58.506Z,88.44
2023-04-03T00:34:31.480Z,88.38
2023-04-03T00:37:02.812Z,88.01
2023-04-03T00:39:42.408Z,87.94
2023-04-03T00:42:12.490Z,88.15
2023-04-03T00:44:40.379Z,88.29
2023-04-03T00:47:09.536Z,88.33
2023-04-03T00:49:38.701Z,88.45
2023-04-03T00:52:10.165Z,88.56
2023-04-03T00:54:42.242Z,88.59
2023-04-03T00:57:25.271Z,88.68
2023-04-03T00:59:57.595Z,88.74
2023-04-03T01:02:33.939Z,88.82
2023-04-03T01:05:02.508Z,88.85
2023-04-03T01:07:32.680Z,88.85
2023-04-03T01:10:02.598Z,88.96
2023-04-03T01:12:33.501Z,89.02
2023-04-03T01:15:03.876Z,89.07
2023-04-03T01:17:46.314Z,89.01
2023-04-03T01:20:24.123Z,89.10
2023-04-03T01:22:52.020Z,89.02
2023-04-03T01:25:23.261Z,89.00
2023-04-03T01:27:51.844Z,88.99
2023-04-03T01:30:32.108Z,88.86
2023-04-03T01:33:03.316Z,88.99
2023-04-03T01:35:38.908Z,89.01
2023-04-03T01:38:07.510Z,88.94
2023-04-03T01:40:35.663Z,88.78
2023-04-03T01:43:08.693Z,88.83
2023-04-03T01:45:39.204Z,88.90
2023-04-03T01:48:07.339Z,88.93
2023-04-03T01:50:35.794Z,88.86
2023-04-03T01:53:07.985Z,88.88
2023-04-03T01:55:44.400Z,89.08
2023-04-03T01:58:25.458Z,89.14
2023-04-03T02:00:54.031Z,89.21
2023-04-03T02:03:26.563Z,89.32
2023-04-03T02:06:03.870Z,89.37
2023-04-03T02:08:34.949Z,89.24
2023-04-03T02:11:07.594Z,89.19
2023-04-03T02:13:38.380Z,89.27
2023-04-03T02:16:12.923Z,89.07
2023-04-03T02:19:05.045Z,89.02
2023-04-03T02:21:53.326Z,89.07
2023-04-03T02:24:28.773Z,89.06
2023-04-03T02:27:16.770Z,88.99
2023-04-03T02:29:44.919Z,88.98
2023-04-03T02:32:19.813Z,88.97
2023-04-03T02:35:04.687Z,88.85
2023-04-03T02:37:36.178Z,88.79
2023-04-03T02:40:17.470Z,88.50
2023-04-03T02:42:49.548Z,88.52
2023-04-03T02:45:17.399Z,88.39
2023-04-03T02:47:45.195Z,88.00
2023-04-03T02:50:16.347Z,87.77
2023-04-03T02:52:44.222Z,88.01
2023-04-03T02:55:14.809Z,88.34
2023-04-03T02:57:42.627Z,88.21
2023-04-03T03:00:10.918Z,88.25
2023-04-03T03:02:41.900Z,88.37
2023-04-03T03:05:09.908Z,88.89
2023-04-03T03:07:38.140Z,88.85
2023-04-03T03:10:06.230Z,89.05
2023-04-03T03:12:34.020Z,89.15
2023-04-03T03:15:05.359Z,89.19
2023-04-03T03:17:33.387Z,89.14
2023-04-03T03:20:06.530Z,89.05
2023-04-03T03:22:34.748Z,89.23
2023-04-03T03:25:05.074Z,89.35
2023-04-03T03:27:35.164Z,89.35
2023-04-03T03:30:03.308Z,89.45
2023-04-03T03:32:33.602Z,89.43
2023-04-03T03:35:04.837Z,89.48
2023-04-03T03:37:32.599Z,89.58
2023-04-03T03:40:00.479Z,89.61
2023-04-03T03:42:28.345Z,89.68
2023-04-03T03:44:56.144Z,89.57
2023-04-03T03:47:23.948Z,89.59
2023-04-03T03:49:54.565Z,89.61
2023-04-03T03:52:22.492Z,89.68
2023-04-03T03:54:50.277Z,89.57
2023-04-03T03:57:21.129Z,89.47
2023-04-03T03:59:49.061Z,89.61
2023-04-03T04:02:18.256Z,89.50
2023-04-03T04:04:46.516Z,89.45
2023-04-03T04:07:14.383Z,89.36
2023-04-03T04:09:42.502Z,89.20
2023-04-03T04:12:10.521Z,89.24
2023-04-03T04:14:38.732Z,89.10
2023-04-03T04:17:07.548Z,88.85
2023-04-03T04:19:37.336Z,88.42
2023-04-03T04:22:05.574Z,88.45
2023-04-03T04:24:33.744Z,88.29
2023-04-03T04:27:03.514Z,88.35
2023-04-03T04:29:40.860Z,88.32
2023-04-03T04:32:09.522Z,88.30
2023-04-03T04:34:37.439Z,88.32
2023-04-03T04:37:05.391Z,88.37
2023-04-03T04:39:33.742Z,88.21
2023-04-03T04:42:02.322Z,87.93
2023-04-03T04:44:31.739Z,87.64
2023-04-03T04:47:00.409Z,87.56
2023-04-03T04:49:28.977Z,87.56
2023-04-03T04:51:59.450Z,87.68
2023-04-03T04:54:30.477Z,87.89
2023-04-03T04:56:59.216Z,88.01
2023-04-03T04:59:27.913Z,88.20
2023-04-03T05:01:56.950Z,88.01
2023-04-03T05:04:24.847Z,87.82
2023-04-03T05:06:56.645Z,87.65
2023-04-03T05:09:26.715Z,87.58
2023-04-03T05:11:54.765Z,87.42
2023-04-03T05:14:24.714Z,87.46
2023-04-03T05:16:52.884Z,87.68
2023-04-03T05:19:21.741Z,87.57
2023-04-03T05:21:50.242Z,87.12
2023-04-03T05:24:18.378Z,86.44
2023-04-03T05:26:46.350Z,86.30
2023-04-03T05:29:21.985Z,85.60
2023-04-03T05:31:51.307Z,85.07
2023-04-03T05:34:19.512Z,85.47
2023-04-03T05:36:48.575Z,85.51
2023-04-03T05:39:17.256Z,84.48
2023-04-03T05:41:51.371Z,84.78
2023-04-03T05:44:22.419Z,84.77
2023-04-03T05:46:52.868Z,84.82
2023-04-03T05:49:20.941Z,84.96
2023-04-03T05:51:51.100Z,84.93
2023-04-03T05:54:26.376Z,85.24
2023-04-03T05:56:57.389Z,85.15
2023-04-03T05:59:28.767Z,84.43
2023-04-03T06:01:58.549Z,85.54
2023-04-03T06:04:26.795Z,84.43
2023-04-03T06:06:58.925Z,84.83
2023-04-03T06:09:46.885Z,84.00
2023-04-03T06:12:35.114Z,83.86
2023-04-03T06:15:03.619Z,83.57
2023-04-03T06:17:38.703Z,83.50
2023-04-03T06:20:15.800Z,82.82
2023-04-03T06:23:02.004Z,82.36
2023-04-03T06:25:41.875Z,81.49
2023-04-03T06:28:10.311Z,81.77
2023-04-03T06:30:38.388Z,81.95
2023-04-03T06:33:06.524Z,82.03
2023-04-03T06:35:34.534Z,81.60
2023-04-03T06:38:05.154Z,81.64
2023-04-03T06:40:40.729Z,81.39
2023-04-03T06:43:11.008Z,81.36
2023-04-03T06:45:41.728Z,81.16
2023-04-03T06:48:09.770Z,81.33
2023-04-03T06:50:40.574Z,81.60
2023-04-03T06:53:08.446Z,81.44
2023-04-03T06:55:36.809Z,81.29
2023-04-03T06:58:07.358Z,80.16
2023-04-03T07:00:35.490Z,79.90
2023-04-03T07:03:06.532Z,80.27
2023-04-03T07:05:34.546Z,79.81
2023-04-03T07:08:02.420Z,80.26
2023-04-03T07:10:30.354Z,79.84
2023-04-03T07:12:58.164Z,79.15
2023-04-03T07:15:26.181Z,78.91
2023-04-03T07:17:53.948Z,79.62
2023-04-03T07:20:21.793Z,78.41
2023-04-03T07:22:49.733Z,78.46
2023-04-03T07:25:17.740Z,79.06
2023-04-03T07:27:45.604Z,78.74
2023-04-03T07:30:16.246Z,78.77
2023-04-03T07:32:44.900Z,78.34
2023-04-03T07:35:13.244Z,78.03
2023-04-03T07:37:41.133Z,77.62
2023-04-03T07:40:09.223Z,76.66
2023-04-03T07:42:36.977Z,76.78
2023-04-03T07:45:05.290Z,74.82
2023-04-03T07:47:33.250Z,74.82
2023-04-03T07:50:01.124Z,74.09
2023-04-03T07:52:29.129Z,74.55
2023-04-03T07:54:57.022Z,74.22
2023-04-03T07:57:24.851Z,74.09
2023-04-03T07:59:53.060Z,73.82
2023-04-03T08:02:20.874Z,72.57
2023-04-03T08:04:49.127Z,72.79
2023-04-03T08:07:17.269Z,73.07
2023-04-03T08:09:45.158Z,73.71
2023-04-03T08:12:13.144Z,73.37
2023-04-03T08:14:41.175Z,72.95
2023-04-03T08:17:09.316Z,71.50
2023-04-03T08:19:37.244Z,69.63
2023-04-03T08:22:05.276Z,69.20
2023-04-03T08:24:33.952Z,69.35
2023-04-03T08:27:01.973Z,69.23
2023-04-03T08:29:30.145Z,68.28
2023-04-03T08:32:03.537Z,66.59
2023-04-03T08:34:32.109Z,66.50
2023-04-03T08:37:03.195Z,67.16
2023-04-03T08:39:31.091Z,67.89
2023-04-03T08:42:04.102Z,66.71
2023-04-03T08:44:47.603Z,66.36
2023-04-03T08:47:21.676Z,66.54
2023-04-03T08:49:52.382Z,64.40
2023-04-03T08:52:44.778Z,63.45
2023-04-03T08:55:31.356Z,64.65
2023-04-03T08:58:04.170Z,64.60
2023-04-03T09:00:59.264Z,64.56
2023-04-03T09:03:37.649Z,63.75
2023-04-03T09:06:14.806Z,63.01
2023-04-03T09:08:47.124Z,60.26
2023-04-03T09:11:19.445Z,62.04
2023-04-03T09:13:53.037Z,60.36
2023-04-03T09:16:26.016Z,60.22
2023-04-03T09:19:03.397Z,61.51
2023-04-03T09:21:37.810Z,61.69
2023-04-03T09:24:07.270Z,60.98
2023-04-03T09:26:52.374Z,61.40
2023-04-03T09:29:35.287Z,61.47
2023-04-03T09:32:10.776Z,62.27
2023-04-03T09:35:18.881Z,61.32
2023-04-03T09:37:52.496Z,61.38
2023-04-03T09:40:46.831Z,63.06
2023-04-03T09:43:18.206Z,61.64
2023-04-03T09:45:46.768Z,60.85
2023-04-03T09:48:30.537Z,60.32
2023-04-03T09:50:59.851Z,62.86
2023-04-03T09:53:51.543Z,64.36
2023-04-03T09:56:29.394Z,57.64
2023-04-03T09:59:21.007Z,57.15
2023-04-03T10:02:00.309Z,58.22
2023-04-03T10:04:38.001Z,57.60
2023-04-03T10:07:41.211Z,58.03
2023-04-03T10:10:25.154Z,57.91
2023-04-03T10:13:24.835Z,59.32
2023-04-03T10:16:18.343Z,53.08
2023-04-03T10:19:22.719Z,49.71
2023-04-03T10:22:40.153Z,48.96
2023-04-03T10:25:33.562Z,48.40
2023-04-03T10:28:15.280Z,47.66
2023-04-03T10:30:57.340Z,52.94
2023-04-03T10:33:54.188Z,53.19
2023-04-03T10:36:48.078Z,51.56
2023-04-03T10:39:42.555Z,52.97
2023-04-03T10:42:36.312Z,59.28
2023-04-03T10:45:32.100Z,60.43
2023-04-03T10:48:14.013Z,53.97
2023-04-03T10:50:54.504Z,49.17
2023-04-03T10:53:52.890Z,49.20
2023-04-03T10:57:10.855Z,46.10
2023-04-03T11:00:08.656Z,44.15
2023-04-03T11:03:14.329Z,44.94
2023-04-03T11:05:46.662Z,48.20
2023-04-03T11:08:50.919Z,64.77
2023-04-03T11:11:44.035Z,45.87
2023-04-03T11:14:36.246Z,46.86
2023-04-03T11:17:19.258Z,42.79
2023-04-03T11:19:58.420Z,44.02
2023-04-03T11:22:35.718Z,44.63
2023-04-03T11:25:11.033Z,43.94
2023-04-03T11:27:57.624Z,43.97
2023-04-03T11:30:35.252Z,44.35
2023-04-03T11:33:15.025Z,42.80
2023-04-03T11:35:46.218Z,42.36
2023-04-03T11:38:18.604Z,43.13
2023-04-03T11:40:59.435Z,48.59
2023-04-03T11:43:31.135Z,55.59
2023-04-03T11:46:19.880Z,51.52
2023-04-03T11:49:01.238Z,42.19
2023-04-03T11:51:32.269Z,38.99
2023-04-03T11:54:24.992Z,41.33
2023-04-03T11:57:44.945Z,39.74
2023-04-03T12:00:31.429Z,39.12
2023-04-03T12:03:00.529Z,35.76
2023-04-03T12:05:43.058Z,36.73
2023-04-03T12:08:17.334Z,36.33
2023-04-03T12:11:05.414Z,39.03
2023-04-03T12:13:33.656Z,40.58
2023-04-03T12:16:01.995Z,42.42
2023-04-03T12:18:49.147Z,46.84
2023-04-03T12:21:32.466Z,40.88
2023-04-03T12:24:20.742Z,39.20
2023-04-03T12:27:20.897Z,39.85
2023-04-03T12:30:26.828Z,40.64
2023-04-03T12:33:18.645Z,35.63
2023-04-03T12:35:55.995Z,35.44
2023-04-03T12:38:50.221Z,37.20
2023-04-03T12:41:18.290Z,32.89
2023-04-03T12:43:55.366Z,31.87
2023-04-03T12:46:39.131Z,29.41
2023-04-03T12:49:16.016Z,31.54
2023-04-03T12:51:48.843Z,34.23
2023-04-03T12:54:37.527Z,41.85
2023-04-03T12:57:18.798Z,33.66
2023-04-03T12:59:49.826Z,30.53
2023-04-03T13:02:23.125Z,34.01
2023-04-03T13:04:55.918Z,36.67
2023-04-03T13:07:30.870Z,36.46
2023-04-03T13:10:16.637Z,36.36
2023-04-03T13:12:55.686Z,32.76
2023-04-03T13:15:30.484Z,32.18
2023-04-03T13:17:59.043Z,33.86
2023-04-03T13:20:34.435Z,36.83
2023-04-03T13:23:16.093Z,40.51
2023-04-03T13:25:50.643Z,34.48
2023-04-03T13:28:21.104Z,32.73
2023-04-03T13:31:07.089Z,31.76
2023-04-03T13:33:36.301Z,32.91
2023-04-03T13:36:06.610Z,35.16
2023-04-03T13:38:35.462Z,36.81
2023-04-03T13:41:23.664Z,39.23
2023-04-03T13:44:06.595Z,42.35
2023-04-03T13:47:01.228Z,39.51
2023-04-03T13:49:34.541Z,35.73
2023-04-03T13:52:24.433Z,30.95
2023-04-03T13:55:26.582Z,30.63
2023-04-03T13:58:15.321Z,31.43
2023-04-03T14:01:23.615Z,33.86
2023-04-03T14:04:22.007Z,34.73
2023-04-03T14:07:21.275Z,29.22
2023-04-03T14:09:55.614Z,30.12
2023-04-03T14:12:52.875Z,30.14
2023-04-03T14:15:25.832Z,32.38
2023-04-03T14:18:06.641Z,33.31
2023-04-03T14:20:39.673Z,36.25
2023-04-03T14:23:11.784Z,35.05
2023-04-03T14:26:10.916Z,35.50
2023-04-03T14:28:59.178Z,33.74
2023-04-03T14:32:11.582Z,35.00
2023-04-03T14:34:45.299Z,33.41
2023-04-03T14:37:16.660Z,34.91
2023-04-03T14:39:44.958Z,35.21
2023-04-03T14:42:33.988Z,37.30
2023-04-03T14:45:10.180Z,37.53
2023-04-03T14:47:51.087Z,40.54
2023-04-03T14:50:20.482Z,40.22
2023-04-03T14:52:57.153Z,41.04
2023-04-03T14:55:34.119Z,41.05
2023-04-03T14:58:02.117Z,41.34
2023-04-03T15:00:29.925Z,39.99
2023-04-03T15:03:01.001Z,40.71
2023-04-03T15:05:29.436Z,41.25
2023-04-03T15:07:58.582Z,42.76
2023-04-03T15:10:29.255Z,42.33
2023-04-03T15:12:57.723Z,43.18
2023-04-03T15:15:29.217Z,43.77
2023-04-03T15:17:58.125Z,44.51
2023-04-03T15:20:27.790Z,44.97
2023-04-03T15:22:55.610Z,45.43
2023-04-03T15:25:24.154Z,45.65
2023-04-03T15:27:52.346Z,45.95
2023-04-03T15:30:20.333Z,45.59
2023-04-03T15:32:48.715Z,46.10
2023-04-03T15:35:16.682Z,45.25
2023-04-03T15:37:44.615Z,44.89
2023-04-03T15:40:12.881Z,45.65
2023-04-03T15:42:40.885Z,46.07
2023-04-03T15:45:09.107Z,45.72
2023-04-03T15:47:37.214Z,46.52
2023-04-03T15:50:05.902Z,46.20
2023-04-03T15:52:34.314Z,46.51
2023-04-03T15:55:02.280Z,46.53
2023-04-03T16:00:03.186Z,46.03
2023-04-03T16:02:37.073Z,46.55
2023-04-03T16:05:05.348Z,46.95
2023-04-03T16:07:33.195Z,47.47
2023-04-03T16:10:01.288Z,47.54
2023-04-03T16:12:29.640Z,48.40
2023-04-03T16:14:57.475Z,47.72
2023-04-03T16:17:26.916Z,48.35
2023-04-03T16:19:55.667Z,48.38
2023-04-03T16:22:27.220Z,48.32
2023-04-03T16:24:55.167Z,48.59
2023-04-03T16:27:23.373Z,48.84
2023-04-03T16:29:51.417Z,48.99
2023-04-03T16:32:19.996Z,48.84
2023-04-03T16:34:48.095Z,49.01
2023-04-03T16:37:16.472Z,49.36
2023-04-03T16:39:44.878Z,49.35
2023-04-03T16:42:13.226Z,49.59
2023-04-03T16:44:41.074Z,49.88
2023-04-03T16:47:09.374Z,50.42
2023-04-03T16:49:37.425Z,50.35
2023-04-03T16:52:06.129Z,50.73
2023-04-03T16:54:34.858Z,50.48
2023-04-03T16:57:02.691Z,50.77
2023-04-03T16:59:30.529Z,50.72
2023-04-03T17:01:58.469Z,51.26
2023-04-03T17:04:26.459Z,51.29
2023-04-03T17:06:55.294Z,52.08
2023-04-03T17:12:09.192Z,52.60
2023-04-03T17:14:40.315Z,52.92
2023-04-03T17:17:08.610Z,52.99
2023-04-03T17:19:38.143Z,53.15
2023-04-03T17:22:06.135Z,53.39
2023-04-03T17:24:34.436Z,54.36
2023-04-03T17:27:02.664Z,53.82
2023-04-03T17:29:30.476Z,53.62
2023-04-03T17:31:58.684Z,53.86
2023-04-03T17:34:26.973Z,53.82
2023-04-03T17:36:55.602Z,54.05
2023-04-03T17:39:26.661Z,54.01
2023-04-03T17:41:54.773Z,53.91
2023-04-03T17:44:22.783Z,54.08
2023-04-03T17:46:51.174Z,54.37
2023-04-03T17:49:19.653Z,54.64
2023-04-03T17:51:47.942Z,54.74
2023-04-03T17:54:16.316Z,54.56
2023-04-03T17:56:44.660Z,55.88
2023-04-03T17:59:13.228Z,54.68
2023-04-03T18:01:45.823Z,54.79
2023-04-03T18:04:16.749Z,55.27
2023-04-03T18:06:49.944Z,55.65
2023-04-03T18:09:21.945Z,56.18
2023-04-03T18:11:51.299Z,55.72
2023-04-03T18:14:22.652Z,55.89
2023-04-03T18:16:51.120Z,56.04
2023-04-03T18:19:22.531Z,56.27
2023-04-03T18:21:55.128Z,56.12
2023-04-03T18:24:24.147Z,56.11
2023-04-03T18:27:00.428Z,56.34
2023-04-03T18:29:31.240Z,56.41
2023-04-03T18:32:02.955Z,56.66
2023-04-03T18:34:31.873Z,56.61
2023-04-03T18:37:00.337Z,56.66
2023-04-03T18:39:28.700Z,57.35
2023-04-03T18:41:58.942Z,56.96
2023-04-03T18:44:28.017Z,57.44
2023-04-03T18:47:04.239Z,57.14
2023-04-03T18:49:34.641Z,57.13
2023-04-03T18:52:03.568Z,57.33
2023-04-03T18:54:37.204Z,57.68
2023-04-03T18:57:06.102Z,57.70
2023-04-03T18:59:34.251Z,58.71
2023-04-03T19:02:02.595Z,57.86
2023-04-03T19:04:30.816Z,57.91
2023-04-03T19:06:59.287Z,58.00
2023-04-03T19:09:27.576Z,58.16
2023-04-03T19:11:55.353Z,58.51
2023-04-03T19:14:23.296Z,58.64
2023-04-03T19:16:51.674Z,58.63
2023-04-03T19:19:22.043Z,58.70
2023-04-03T19:21:50.656Z,58.64
2023-04-03T19:24:19.099Z,58.63
2023-04-03T19:26:47.306Z,59.30
2023-04-03T19:29:16.595Z,58.96
2023-04-03T19:31:44.995Z,59.17
2023-04-03T19:34:13.116Z,59.26
2023-04-03T19:36:40.993Z,59.71
2023-04-03T19:39:09.020Z,59.85
2023-04-03T19:41:36.999Z,60.03
2023-04-03T19:44:06.141Z,59.99
2023-04-03T19:46:34.721Z,60.27
2023-04-03T19:49:03.440Z,60.24
2023-04-03T19:51:31.940Z,60.48
2023-04-03T19:53:59.808Z,60.39
2023-04-03T19:56:27.677Z,60.47
2023-04-03T19:58:56.009Z,60.64
2023-04-03T20:01:24.022Z,60.73
2023-04-03T20:03:52.058Z,60.83
2023-04-03T20:06:20.051Z,60.74
2023-04-03T20:08:48.028Z,60.65
2023-04-03T20:11:15.872Z,60.70
2023-04-03T20:13:43.671Z,60.69
2023-04-03T20:16:12.424Z,60.57
2023-04-03T20:18:40.617Z,61.01
2023-04-03T20:21:08.660Z,61.01
2023-04-03T20:23:36.816Z,61.06
2023-04-03T20:26:11.348Z,61.12
2023-04-03T20:28:43.099Z,64.84
2023-04-03T20:31:11.049Z,61.65
2023-04-03T20:33:38.889Z,61.13
2023-04-03T20:36:07.073Z,61.25
2023-04-03T20:38:35.085Z,60.97
2023-04-03T20:41:03.008Z,61.03
2023-04-03T20:43:31.152Z,61.11
2023-04-03T20:46:03.002Z,61.34
2023-04-03T20:48:31.394Z,61.45
2023-04-03T20:50:59.228Z,61.12
2023-04-03T20:53:27.281Z,61.11
2023-04-03T20:55:59.165Z,61.13
2023-04-03T20:58:30.131Z,62.76
2023-04-03T21:00:58.090Z,63.34
2023-04-03T21:03:27.779Z,61.93
2023-04-03T21:05:58.579Z,61.50
2023-04-03T21:08:45.691Z,64.79
2023-04-03T21:11:32.408Z,62.41
2023-04-03T21:14:19.266Z,62.29
2023-04-03T21:16:47.050Z,63.10
2023-04-03T21:19:21.105Z,63.39
2023-04-03T21:21:49.001Z,62.08
2023-04-03T21:24:17.486Z,62.04
2023-04-03T21:26:45.825Z,63.09
2023-04-03T21:29:14.448Z,62.59
2023-04-03T21:31:55.886Z,62.75
2023-04-03T21:34:29.708Z,63.32
2023-04-03T21:37:01.411Z,63.07
2023-04-03T21:39:29.732Z,63.59
2023-04-03T21:42:00.404Z,64.02
2023-04-03T21:44:28.501Z,63.58
2023-04-03T21:46:59.774Z,63.65
2023-04-03T21:49:27.986Z,63.74
2023-04-03T21:51:55.740Z,63.90
2023-04-03T21:54:24.497Z,63.96
2023-04-03T21:56:52.560Z,64.79
2023-04-03T21:59:20.567Z,65.09
2023-04-03T22:01:48.812Z,65.49
2023-04-03T22:04:16.622Z,64.78
2023-04-03T22:06:46.920Z,64.88
2023-04-03T22:09:15.051Z,65.08
2023-04-03T22:11:56.262Z,65.66
2023-04-03T22:14:26.751Z,65.57
2023-04-03T22:16:59.762Z,66.17
2023-04-03T22:19:27.738Z,65.43
2023-04-03T22:21:55.573Z,65.69
2023-04-03T22:24:43.867Z,65.80
2023-04-03T22:27:11.804Z,65.81
2023-04-03T22:29:39.700Z,66.07
2023-04-03T22:32:07.772Z,65.79
2023-04-03T22:34:38.409Z,66.25
2023-04-03T22:37:06.177Z,66.07
2023-04-03T22:39:34.049Z,66.51
2023-04-03T22:42:02.477Z,66.53
2023-04-03T22:44:36.117Z,66.71
2023-04-03T22:47:04.453Z,66.88
2023-04-03T22:49:32.274Z,67.02
2023-04-03T22:51:59.964Z,67.31
2023-04-03T22:54:27.762Z,67.46
2023-04-03T22:56:55.517Z,67.66
2023-04-03T22:59:23.230Z,67.68
2023-04-03T23:01:51.022Z,68.05
2023-04-03T23:04:18.832Z,68.31
2023-04-03T23:06:46.661Z,68.40
2023-04-03T23:09:14.575Z,68.75
2023-04-03T23:11:42.293Z,69.11
2023-04-03T23:14:09.991Z,69.20
2023-04-03T23:16:37.777Z,69.36
2023-04-03T23:19:05.464Z,69.63
2023-04-03T23:21:33.153Z,69.86
2023-04-03T23:24:00.904Z,70.05
2023-04-03T23:26:28.581Z,70.18
2023-04-03T23:28:56.471Z,70.22
2023-04-03T23:31:24.266Z,70.55
2023-04-03T23:33:52.099Z,70.57
2023-04-03T23:36:19.826Z,70.65
2023-04-03T23:38:47.600Z,71.90
2023-04-03T23:41:15.267Z,70.53
2023-04-03T23:43:43.100Z,70.41
2023-04-03T23:46:10.999Z,70.81
2023-04-03T23:48:38.702Z,71.27
2023-04-03T23:51:06.490Z,71.11
2023-04-03T23:53:34.202Z,71.41
2023-04-03T23:56:01.939Z,71.53
2023-04-03T23:58:29.634Z,71.79
